Harmony — WDH4256 — position and weather

sailwx.info

Track history (hours):
 
Tides and Currents Weather Stations Pressure Air Temp Water Temp Dewpoint Dewpoint Depression Visibility Wind Speed Wind Dir Waves Ship Positions

Harmony

Owner: Adams, Joshua C, Cathlamet, WA. More information available from US FCC via Universal Licensing System and Coast Guard Vessel Documentation Center.

Last reported at 2018-Jun-08 11:59 UTC. Time now 2018-Jun-25 11:40 UTC.
Position N 54°32' W 130°41'.
Warning: this ship's position is 16 days out of date.

Length 22 m; draft 2.8 m.

Type: Fishing. MMSI: 367615820.

Date/timePositionNaut miles runAvg speedWind from/ knotsBaromVisibWave heightAir tempDewpointWater temp
2018-Jun-08 11:59N 54°32' W 130°41'4 8.6
2018-Jun-08 11:29N 54°27' W 130°40'4 8.9
2018-Jun-08 11:00N 54°23' W 130°39'5 9.2
2018-Jun-08 10:30N 54°19' W 130°36'4 9.0
2018-Jun-08 10:00N 54°15' W 130°32'5 9.1
2018-Jun-08 09:30N 54°11' W 130°27'4 8.6
2018-Jun-08 09:00N 54°08' W 130°23'4 8.6
2018-Jun-08 08:31N 54°05' W 130°18'4 8.4
2018-Jun-08 08:00N 54°02' W 130°14'4 8.4
2018-Jun-08 07:30N 53°57' W 130°12'107 7.5
2018-Jun-07 17:15N 52°30' W 128°28'2 8.3
2018-Jun-07 16:59N 52°28' W 128°28'4 8.1
2018-Jun-07 16:29N 52°24' W 128°29'9 7.4
2018-Jun-07 15:17N 52°16' W 128°23'3 9.4
2018-Jun-07 14:56N 52°15' W 128°18'4 8.4
2018-Jun-07 14:30N 52°14' W 128°12'4 8.5
2018-Jun-07 13:59N 52°12' W 128°06'4 7.8
2018-Jun-07 13:30N 52°08' W 128°08'4 7.3
2018-Jun-07 13:00N 52°05' W 128°05'4 8.9
2018-Jun-07 12:30N 52°04' W 127°57'4 7.0
2018-Jun-07 12:00N 52°01' W 127°56'4 7.8
2018-Jun-07 11:30N 51°57' W 127°56'4 8.0
2018-Jun-07 11:00N 51°53' W 127°57'4 8.3
2018-Jun-07 10:30N 51°49' W 127°57'4 8.2
2018-Jun-07 10:00N 51°45' W 127°57'4 8.7
2018-Jun-07 09:30N 51°41' W 127°56'4 8.5
2018-Jun-07 09:00N 51°37' W 127°53'4 8.0
2018-Jun-07 08:30N 51°33' W 127°51'4 7.9
2018-Jun-07 08:00N 51°29' W 127°50'4 7.5
2018-Jun-07 07:30N 51°25' W 127°52'4 7.5
2018-Jun-07 06:58N 51°21' W 127°54'4 7.9
2018-Jun-07 06:30N 51°18' W 127°54'  
2018-Jun-04 05:47N 46°59' W 124°18'2 8.1
2018-Jun-04 05:30N 46°57' W 124°17'4 7.9
2018-Jun-04 05:00N 46°53' W 124°16'4 7.9
2018-Jun-04 04:30N 46°50' W 124°14'4 7.6
2018-Jun-04 04:00N 46°46' W 124°12'4 7.5
2018-Jun-04 03:30N 46°42' W 124°12'4 7.4
2018-Jun-04 02:57N 46°38' W 124°11'3 7.6
2018-Jun-04 02:30N 46°35' W 124°10'4 8.0
2018-Jun-04 02:00N 46°31' W 124°10'4 8.5
2018-Jun-04 01:30N 46°26' W 124°10'4 7.4
2018-Jun-04 01:00N 46°23' W 124°10'4 7.8
2018-Jun-04 00:30N 46°19' W 124°09'4 7.0
2018-Jun-04 00:01N 46°16' W 124°07'4 7.5
2018-Jun-03 23:30N 46°15' W 124°01'3 4.2
2018-Jun-03 22:47N 46°16' W 123°57'0 0.0
2018-Jun-03 22:27N 46°16' W 123°57'0 0.0
2018-Jun-03 22:01N 46°16' W 123°57'0 0.0
2018-Jun-03 21:31N 46°16' W 123°57'0 0.0
2018-Jun-03 21:00N 46°16' W 123°57'0 0.0
2018-Jun-03 20:29N 46°16' W 123°57'0 0.0
2018-Jun-03 19:58N 46°16' W 123°57'0 0.0
2018-Jun-03 19:31N 46°16' W 123°57'0 0.0
2018-Jun-03 19:01N 46°16' W 123°57'0 0.0
2018-Jun-03 17:52N 46°16' W 123°57'0 0.0
2018-Jun-03 17:31N 46°16' W 123°57'0 0.0
2018-Jun-03 17:01N 46°16' W 123°57'0 0.0
2018-Jun-03 16:30N 46°16' W 123°57'0 0.0
2018-Jun-03 16:00N 46°16' W 123°57'0 0.0
2018-Jun-03 15:30N 46°16' W 123°57'0 0.0
2018-Jun-03 15:00N 46°16' W 123°57'0 0.0
2018-Jun-03 14:30N 46°16' W 123°57'0 0.0
2018-Jun-03 14:01N 46°16' W 123°57'0 0.0
2018-Jun-03 13:21N 46°16' W 123°57'0 0.0
2018-Jun-03 13:00N 46°16' W 123°57'0 0.0
2018-Jun-03 12:20N 46°16' W 123°57'0 0.0
2018-Jun-03 12:01N 46°16' W 123°57'0 0.0
2018-Jun-03 11:31N 46°16' W 123°57'0 0.0
2018-Jun-03 11:01N 46°16' W 123°57'0 0.0
2018-Jun-03 10:30N 46°16' W 123°57'0 0.0
2018-Jun-03 10:00N 46°16' W 123°57'0 0.0
2018-Jun-03 09:30N 46°16' W 123°57'0 0.0
2018-Jun-03 09:01N 46°16' W 123°57'0 0.0
2018-Jun-03 08:30N 46°16' W 123°57'0 0.0
2018-Jun-03 07:49N 46°16' W 123°57'0 0.0
2018-Jun-03 07:30N 46°16' W 123°57'0 0.0
2018-Jun-03 06:59N 46°16' W 123°57'0 0.0
2018-Jun-03 06:31N 46°16' W 123°57'0 0.0
2018-Jun-03 06:01N 46°16' W 123°57'0 0.0
2018-Jun-03 05:30N 46°16' W 123°57'0 0.0
2018-Jun-03 05:00N 46°16' W 123°57'0 0.0
2018-Jun-03 04:30N 46°16' W 123°57'0 0.0
2018-Jun-03 03:48N 46°16' W 123°57'0 0.0
2018-Jun-03 03:30N 46°16' W 123°57'0 0.0
2018-Jun-03 03:01N 46°16' W 123°57'0 0.0
2018-Jun-03 02:31N 46°16' W 123°57'0 0.0
2018-Jun-03 02:01N 46°16' W 123°57'0 0.0
2018-Jun-03 01:16N 46°16' W 123°57'0 0.0
2018-Jun-03 00:58N 46°16' W 123°57'0 0.0
2018-Jun-03 00:30N 46°16' W 123°57'0 0.0
2018-Jun-03 00:01N 46°16' W 123°57'0 0.0
2018-Jun-02 23:31N 46°16' W 123°57'0 0.0
2018-Jun-02 23:00N 46°16' W 123°57'0 0.0
2018-Jun-02 22:30N 46°16' W 123°57'0 0.0
2018-Jun-02 22:00N 46°16' W 123°57'0 0.0
2018-Jun-02 21:30N 46°16' W 123°57'0 0.0
2018-Jun-02 21:00N 46°16' W 123°57'0 0.0
2018-Jun-02 20:30N 46°16' W 123°57'0 0.0
2018-Jun-02 19:48N 46°16' W 123°57'0 0.0
2018-Jun-02 19:30N 46°16' W 123°57'0 0.0
2018-Jun-02 18:47N 46°16' W 123°57'0 0.0
2018-Jun-02 18:31N 46°16' W 123°57'0 0.0
2018-Jun-02 18:00N 46°16' W 123°57'0 0.0
2018-Jun-02 17:31N 46°16' W 123°57'0 0.0
2018-Jun-02 17:00N 46°16' W 123°57'0 0.0
2018-Jun-02 16:31N 46°16' W 123°57'0 0.0
2018-Jun-02 16:00N 46°16' W 123°57'0 0.0
2018-Jun-02 15:31N 46°16' W 123°57'0 0.0
2018-Jun-02 14:47N 46°16' W 123°57'0 0.0
2018-Jun-02 14:31N 46°16' W 123°57'0 0.0
2018-Jun-02 14:00N 46°16' W 123°57'0 0.0
2018-Jun-02 13:24N 46°16' W 123°57'0 0.0
2018-Jun-02 13:00N 46°16' W 123°57'0 0.0
2018-Jun-02 12:30N 46°16' W 123°57'0 0.0
2018-Jun-02 12:01N 46°16' W 123°57'0 0.0
2018-Jun-02 11:30N 46°16' W 123°57'0 0.0
2018-Jun-02 11:00N 46°16' W 123°57'0 0.0
2018-Jun-02 10:30N 46°16' W 123°57'0 0.0
2018-Jun-02 10:01N 46°16' W 123°57'0 0.0
2018-Jun-02 09:30N 46°16' W 123°57'0 0.0
2018-Jun-02 09:01N 46°16' W 123°57'0 0.0
2018-Jun-02 08:30N 46°16' W 123°57'0 0.0
2018-Jun-02 08:00N 46°16' W 123°57'0 0.0
2018-Jun-02 07:16N 46°16' W 123°57'0 0.0
2018-Jun-02 06:59N 46°16' W 123°57'0 0.0
2018-Jun-02 06:30N 46°16' W 123°57'0 0.0
2018-Jun-02 06:01N 46°16' W 123°57'0 0.0
2018-Jun-02 05:31N 46°16' W 123°57'0 0.0
2018-Jun-02 05:00N 46°16' W 123°57'0 0.0
2018-Jun-02 04:31N 46°16' W 123°57'0 0.0
2018-Jun-02 03:56N 46°16' W 123°57'0 0.0
2018-Jun-02 03:31N 46°16' W 123°57'0 0.0
2018-Jun-02 03:00N 46°16' W 123°57'0 0.0
2018-Jun-02 02:30N 46°16' W 123°57'0 0.0
2018-Jun-02 02:00N 46°16' W 123°57'0 0.0
2018-Jun-02 01:30N 46°16' W 123°57'0 0.0
2018-Jun-02 01:00N 46°16' W 123°57'0 0.0
2018-Jun-02 00:30N 46°16' W 123°57'0 0.0
2018-Jun-02 00:00N 46°16' W 123°57'0 0.0
2018-Jun-01 23:30N 46°16' W 123°57'0 0.0
2018-Jun-01 23:00N 46°16' W 123°57'0 0.0
2018-Jun-01 22:31N 46°16' W 123°57'0 0.0
2018-Jun-01 22:00N 46°16' W 123°57'0 0.0
2018-Jun-01 21:28N 46°16' W 123°57'0 0.0
2018-Jun-01 21:00N 46°16' W 123°57'0 0.0
2018-Jun-01 20:30N 46°16' W 123°57'0 0.0
2018-Jun-01 20:00N 46°16' W 123°57'0 0.0
2018-Jun-01 19:30N 46°16' W 123°57'0 0.0
2018-Jun-01 19:01N 46°16' W 123°57'0 0.0
2018-Jun-01 18:30N 46°16' W 123°57'0 0.0
2018-Jun-01 18:00N 46°16' W 123°57'0 0.0
2018-Jun-01 17:30N 46°16' W 123°57'0 0.0
2018-Jun-01 17:00N 46°16' W 123°57'0 0.0
2018-Jun-01 16:27N 46°16' W 123°57'0 0.0
2018-Jun-01 16:00N 46°16' W 123°57'0 0.0
2018-Jun-01 15:30N 46°16' W 123°57'0 0.0
2018-Jun-01 15:00N 46°16' W 123°57'0 0.0
2018-Jun-01 14:30N 46°16' W 123°57'0 0.0
2018-Jun-01 13:45N 46°16' W 123°57'0 0.0
2018-Jun-01 13:30N 46°16' W 123°57'0 0.0
2018-Jun-01 13:00N 46°16' W 123°57'0 0.0
2018-Jun-01 12:30N 46°16' W 123°57'0 0.0
2018-Jun-01 12:00N 46°16' W 123°57'0 0.0
2018-Jun-01 11:30N 46°16' W 123°57'0 0.0
2018-Jun-01 11:00N 46°16' W 123°57'0 0.0
2018-Jun-01 10:30N 46°16' W 123°57'0 0.0
2018-Jun-01 10:01N 46°16' W 123°57'0 0.0
2018-Jun-01 09:30N 46°16' W 123°57'0 0.0
2018-Jun-01 09:01N 46°16' W 123°57'0 0.0
2018-Jun-01 08:30N 46°16' W 123°57'0 0.0
2018-Jun-01 08:00N 46°16' W 123°57'0 0.0
2018-Jun-01 07:30N 46°16' W 123°57'0 0.0
2018-Jun-01 06:59N 46°16' W 123°57'0 0.0
2018-Jun-01 06:30N 46°16' W 123°57'0 0.0
2018-Jun-01 05:45N 46°16' W 123°57'0 0.0
2018-Jun-01 05:30N 46°16' W 123°57'0 0.0
2018-Jun-01 04:47N 46°16' W 123°57'0 0.0
2018-Jun-01 04:30N 46°16' W 123°57'0 0.0
2018-Jun-01 04:01N 46°16' W 123°57'0 0.0
2018-Jun-01 03:27N 46°16' W 123°57'0 0.0
2018-Jun-01 03:01N 46°16' W 123°57'0 0.0
2018-Jun-01 02:31N 46°16' W 123°57'0 0.0
2018-Jun-01 02:01N 46°16' W 123°57'0 0.0
2018-Jun-01 01:21N 46°16' W 123°57'0 0.0
2018-Jun-01 01:00N 46°16' W 123°57'0 0.0
2018-Jun-01 00:30N 46°16' W 123°57'0 0.0
2018-Jun-01 00:00N 46°16' W 123°57'0 0.0
2018-May-31 23:30N 46°16' W 123°57'0 0.0
2018-May-31 23:01N 46°16' W 123°57'0 0.0
2018-May-31 22:30N 46°16' W 123°57'0 0.0
2018-May-31 22:00N 46°16' W 123°57'0 0.0
2018-May-31 21:31N 46°16' W 123°57'0 0.0
2018-May-31 21:00N 46°16' W 123°57'0 0.0
2018-May-31 20:30N 46°16' W 123°57'0 0.0
2018-May-31 20:00N 46°16' W 123°57'0 0.0
2018-May-31 19:30N 46°16' W 123°57'0 0.0
2018-May-31 19:00N 46°16' W 123°57'0 0.0
2018-May-31 18:25N 46°16' W 123°57'0 0.0
2018-May-31 17:45N 46°16' W 123°57'0 0.0
2018-May-31 17:30N 46°16' W 123°57'0 0.0
2018-May-31 17:00N 46°16' W 123°57'0 0.0
2018-May-31 16:30N 46°16' W 123°57'0 0.0
2018-May-31 16:00N 46°16' W 123°57'0 0.0
2018-May-31 15:30N 46°16' W 123°57'0 0.0
2018-May-31 14:48N 46°16' W 123°57'0 0.0
2018-May-31 14:30N 46°16' W 123°57'0 0.0
2018-May-31 14:00N 46°16' W 123°57'0 0.0
2018-May-31 13:30N 46°16' W 123°57'0 0.0
2018-May-31 13:00N 46°16' W 123°57'0 0.0
2018-May-31 12:30N 46°16' W 123°57'0 0.0
2018-May-31 04:42N 46°16' W 123°57'0 0.0
2018-May-31 04:30N 46°16' W 123°57'0 0.0
2018-May-31 04:00N 46°16' W 123°57'0 0.0
2018-May-31 03:30N 46°16' W 123°57'0 0.0
2018-May-31 03:00N 46°16' W 123°57'0 0.0
2018-May-31 02:30N 46°16' W 123°57'0 0.0
2018-May-31 02:00N 46°16' W 123°57'0 0.0
2018-May-31 01:31N 46°16' W 123°57'0 0.0
2018-May-31 01:00N 46°16' W 123°57'0 0.0
2018-May-31 00:31N 46°16' W 123°57'0 0.0
2018-May-31 00:00N 46°16' W 123°57'0 0.0
2018-May-30 23:31N 46°16' W 123°57'0 0.0
2018-May-30 23:00N 46°16' W 123°57'0 0.0
2018-May-30 22:16N 46°16' W 123°57'0 0.0
2018-May-30 22:01N 46°16' W 123°57'0 0.0
2018-May-30 21:31N 46°16' W 123°57'0 0.0
2018-May-30 21:01N 46°16' W 123°57'0 0.0
2018-May-30 20:30N 46°16' W 123°57'0 0.0
2018-May-30 20:00N 46°16' W 123°57'0 0.0
2018-May-30 19:30N 46°16' W 123°57'0 0.0
2018-May-30 19:01N 46°16' W 123°57'0 0.0
2018-May-30 18:30N 46°16' W 123°57'0 0.0
2018-May-30 18:00N 46°16' W 123°57'0 0.0
2018-May-30 17:30N 46°16' W 123°57'0 0.0
2018-May-30 17:01N 46°16' W 123°57'0 0.0
2018-May-30 16:31N 46°16' W 123°57'0 0.0
2018-May-30 16:00N 46°16' W 123°57'0 0.0
2018-May-30 15:17N 46°16' W 123°57'0 0.0
2018-May-30 15:01N 46°16' W 123°57'0 0.0
2018-May-30 14:31N 46°16' W 123°57'0 0.0
2018-May-30 14:01N 46°16' W 123°57'0 0.0
2018-May-30 13:30N 46°16' W 123°57'0 0.0
2018-May-30 13:00N 46°16' W 123°57'0 0.0
2018-May-30 12:30N 46°16' W 123°57'0 0.0
2018-May-30 11:58N 46°16' W 123°57'0 0.0
2018-May-30 11:31N 46°16' W 123°57'0 0.0
2018-May-30 11:00N 46°16' W 123°57'0 0.0
2018-May-30 10:15N 46°16' W 123°57'0 0.0
2018-May-30 10:01N 46°16' W 123°57'0 0.0
2018-May-30 09:31N 46°16' W 123°57'0 0.0
2018-May-30 09:00N 46°16' W 123°57'0 0.0
2018-May-30 08:30N 46°16' W 123°57'0 0.0
2018-May-30 08:01N 46°16' W 123°57'0 0.0
2018-May-30 07:30N 46°16' W 123°57'0 0.0
2018-May-30 06:59N 46°16' W 123°57'0 0.0
2018-May-30 06:30N 46°16' W 123°57'0 0.0
2018-May-30 06:00N 46°16' W 123°57'0 0.0
2018-May-30 05:16N 46°16' W 123°57'0 0.0
2018-May-30 05:01N 46°16' W 123°57'0 0.0
2018-May-30 04:30N 46°16' W 123°57'0 0.0
2018-May-30 04:00N 46°16' W 123°57'0 0.0
2018-May-30 03:31N 46°16' W 123°57'0 0.0
2018-May-30 02:47N 46°16' W 123°57'0 0.0
2018-May-30 02:30N 46°16' W 123°57'0 0.0
2018-May-30 01:53N 46°16' W 123°57'0 0.0
2018-May-30 01:30N 46°16' W 123°57'0 0.0
2018-May-30 01:00N 46°16' W 123°57'0 0.0
2018-May-30 00:30N 46°16' W 123°57'0 0.0
2018-May-29 23:53N 46°16' W 123°57'0 0.0
2018-May-29 23:31N 46°16' W 123°57'0 0.0
2018-May-29 23:00N 46°16' W 123°57'0 0.0
2018-May-29 22:30N 46°16' W 123°57'0 0.0
2018-May-29 22:00N 46°16' W 123°57'0 0.0
2018-May-29 21:25N 46°16' W 123°57'0 0.0
2018-May-29 21:00N 46°16' W 123°57'0 0.0
2018-May-29 20:30N 46°16' W 123°57'0 0.0
2018-May-29 20:00N 46°16' W 123°57'0 0.0
2018-May-29 19:30N 46°16' W 123°57'0 0.0
2018-May-29 19:00N 46°16' W 123°57'0 0.0
2018-May-29 18:30N 46°16' W 123°57'0 0.0
2018-May-29 18:00N 46°16' W 123°57'0 0.0
2018-May-29 17:30N 46°16' W 123°57'0 0.0
2018-May-29 17:00N 46°16' W 123°57'0 0.0
2018-May-29 16:30N 46°16' W 123°57'0 0.0
2018-May-29 16:00N 46°16' W 123°57'0 0.0
2018-May-29 15:30N 46°16' W 123°57'0 0.0
2018-May-29 15:00N 46°16' W 123°57'0 0.0
2018-May-29 14:30N 46°16' W 123°57'0 0.0
2018-May-29 14:00N 46°16' W 123°57'0 0.0
2018-May-29 13:30N 46°16' W 123°57'0 0.0
2018-May-29 13:00N 46°16' W 123°57'0 0.0
2018-May-29 12:23N 46°16' W 123°57'  
Track history (hours):
 
Tides and Currents Weather Stations Pressure Air Temp Water Temp Dewpoint Dewpoint Depression Visibility Wind Speed Wind Dir Waves Ship Positions

Harmony

Owner: Adams, Joshua C, Cathlamet, WA. More information available from US FCC via Universal Licensing System and Coast Guard Vessel Documentation Center.

Last reported at 2018-Jun-08 11:59 UTC. Time now 2018-Jun-25 11:40 UTC.
Position N 54°32' W 130°41'.
Warning: this ship's position is 16 days out of date.

Length 22 m; draft 2.8 m.

Type: Fishing. MMSI: 367615820.

Date/timePositionNaut miles runAvg speedWind from/ knotsBaromVisibWave heightAir tempDewpointWater temp
2018-Jun-08 11:59N 54°32' W 130°41'4 8.6
2018-Jun-08 11:29N 54°27' W 130°40'4 8.9
2018-Jun-08 11:00N 54°23' W 130°39'5 9.2
2018-Jun-08 10:30N 54°19' W 130°36'4 9.0
2018-Jun-08 10:00N 54°15' W 130°32'5 9.1
2018-Jun-08 09:30N 54°11' W 130°27'4 8.6
2018-Jun-08 09:00N 54°08' W 130°23'4 8.6
2018-Jun-08 08:31N 54°05' W 130°18'4 8.4
2018-Jun-08 08:00N 54°02' W 130°14'4 8.4
2018-Jun-08 07:30N 53°57' W 130°12'107 7.5
2018-Jun-07 17:15N 52°30' W 128°28'2 8.3
2018-Jun-07 16:59N 52°28' W 128°28'4 8.1
2018-Jun-07 16:29N 52°24' W 128°29'9 7.4
2018-Jun-07 15:17N 52°16' W 128°23'3 9.4
2018-Jun-07 14:56N 52°15' W 128°18'4 8.4
2018-Jun-07 14:30N 52°14' W 128°12'4 8.5
2018-Jun-07 13:59N 52°12' W 128°06'4 7.8
2018-Jun-07 13:30N 52°08' W 128°08'4 7.3
2018-Jun-07 13:00N 52°05' W 128°05'4 8.9
2018-Jun-07 12:30N 52°04' W 127°57'4 7.0
2018-Jun-07 12:00N 52°01' W 127°56'4 7.8
2018-Jun-07 11:30N 51°57' W 127°56'4 8.0
2018-Jun-07 11:00N 51°53' W 127°57'4 8.3
2018-Jun-07 10:30N 51°49' W 127°57'4 8.2
2018-Jun-07 10:00N 51°45' W 127°57'4 8.7
2018-Jun-07 09:30N 51°41' W 127°56'4 8.5
2018-Jun-07 09:00N 51°37' W 127°53'4 8.0
2018-Jun-07 08:30N 51°33' W 127°51'4 7.9
2018-Jun-07 08:00N 51°29' W 127°50'4 7.5
2018-Jun-07 07:30N 51°25' W 127°52'4 7.5
2018-Jun-07 06:58N 51°21' W 127°54'4 7.9
2018-Jun-07 06:30N 51°18' W 127°54'  
2018-Jun-04 05:47N 46°59' W 124°18'2 8.1
2018-Jun-04 05:30N 46°57' W 124°17'4 7.9
2018-Jun-04 05:00N 46°53' W 124°16'4 7.9
2018-Jun-04 04:30N 46°50' W 124°14'4 7.6
2018-Jun-04 04:00N 46°46' W 124°12'4 7.5
2018-Jun-04 03:30N 46°42' W 124°12'4 7.4
2018-Jun-04 02:57N 46°38' W 124°11'3 7.6
2018-Jun-04 02:30N 46°35' W 124°10'4 8.0
2018-Jun-04 02:00N 46°31' W 124°10'4 8.5
2018-Jun-04 01:30N 46°26' W 124°10'4 7.4
2018-Jun-04 01:00N 46°23' W 124°10'4 7.8
2018-Jun-04 00:30N 46°19' W 124°09'4 7.0
2018-Jun-04 00:01N 46°16' W 124°07'4 7.5
2018-Jun-03 23:30N 46°15' W 124°01'3 4.2
2018-Jun-03 22:47N 46°16' W 123°57'0 0.0
2018-Jun-03 22:27N 46°16' W 123°57'0 0.0
2018-Jun-03 22:01N 46°16' W 123°57'0 0.0
2018-Jun-03 21:31N 46°16' W 123°57'0 0.0
2018-Jun-03 21:00N 46°16' W 123°57'0 0.0
2018-Jun-03 20:29N 46°16' W 123°57'0 0.0
2018-Jun-03 19:58N 46°16' W 123°57'0 0.0
2018-Jun-03 19:31N 46°16' W 123°57'0 0.0
2018-Jun-03 19:01N 46°16' W 123°57'0 0.0
2018-Jun-03 17:52N 46°16' W 123°57'0 0.0
2018-Jun-03 17:31N 46°16' W 123°57'0 0.0
2018-Jun-03 17:01N 46°16' W 123°57'0 0.0
2018-Jun-03 16:30N 46°16' W 123°57'0 0.0
2018-Jun-03 16:00N 46°16' W 123°57'0 0.0
2018-Jun-03 15:30N 46°16' W 123°57'0 0.0
2018-Jun-03 15:00N 46°16' W 123°57'0 0.0
2018-Jun-03 14:30N 46°16' W 123°57'0 0.0
2018-Jun-03 14:01N 46°16' W 123°57'0 0.0
2018-Jun-03 13:21N 46°16' W 123°57'0 0.0
2018-Jun-03 13:00N 46°16' W 123°57'0 0.0
2018-Jun-03 12:20N 46°16' W 123°57'0 0.0
2018-Jun-03 12:01N 46°16' W 123°57'0 0.0
2018-Jun-03 11:31N 46°16' W 123°57'0 0.0
2018-Jun-03 11:01N 46°16' W 123°57'0 0.0
2018-Jun-03 10:30N 46°16' W 123°57'0 0.0
2018-Jun-03 10:00N 46°16' W 123°57'0 0.0
2018-Jun-03 09:30N 46°16' W 123°57'0 0.0
2018-Jun-03 09:01N 46°16' W 123°57'0 0.0
2018-Jun-03 08:30N 46°16' W 123°57'0 0.0
2018-Jun-03 07:49N 46°16' W 123°57'0 0.0
2018-Jun-03 07:30N 46°16' W 123°57'0 0.0
2018-Jun-03 06:59N 46°16' W 123°57'0 0.0
2018-Jun-03 06:31N 46°16' W 123°57'0 0.0
2018-Jun-03 06:01N 46°16' W 123°57'0 0.0
2018-Jun-03 05:30N 46°16' W 123°57'0 0.0
2018-Jun-03 05:00N 46°16' W 123°57'0 0.0
2018-Jun-03 04:30N 46°16' W 123°57'0 0.0
2018-Jun-03 03:48N 46°16' W 123°57'0 0.0
2018-Jun-03 03:30N 46°16' W 123°57'0 0.0
2018-Jun-03 03:01N 46°16' W 123°57'0 0.0
2018-Jun-03 02:31N 46°16' W 123°57'0 0.0
2018-Jun-03 02:01N 46°16' W 123°57'0 0.0
2018-Jun-03 01:16N 46°16' W 123°57'0 0.0
2018-Jun-03 00:58N 46°16' W 123°57'0 0.0
2018-Jun-03 00:30N 46°16' W 123°57'0 0.0
2018-Jun-03 00:01N 46°16' W 123°57'0 0.0
2018-Jun-02 23:31N 46°16' W 123°57'0 0.0
2018-Jun-02 23:00N 46°16' W 123°57'0 0.0
2018-Jun-02 22:30N 46°16' W 123°57'0 0.0
2018-Jun-02 22:00N 46°16' W 123°57'0 0.0
2018-Jun-02 21:30N 46°16' W 123°57'0 0.0
2018-Jun-02 21:00N 46°16' W 123°57'0 0.0
2018-Jun-02 20:30N 46°16' W 123°57'0 0.0
2018-Jun-02 19:48N 46°16' W 123°57'0 0.0
2018-Jun-02 19:30N 46°16' W 123°57'0 0.0
2018-Jun-02 18:47N 46°16' W 123°57'0 0.0
2018-Jun-02 18:31N 46°16' W 123°57'0 0.0
2018-Jun-02 18:00N 46°16' W 123°57'0 0.0
2018-Jun-02 17:31N 46°16' W 123°57'0 0.0
2018-Jun-02 17:00N 46°16' W 123°57'0 0.0
2018-Jun-02 16:31N 46°16' W 123°57'0 0.0
2018-Jun-02 16:00N 46°16' W 123°57'0 0.0
2018-Jun-02 15:31N 46°16' W 123°57'0 0.0
2018-Jun-02 14:47N 46°16' W 123°57'0 0.0
2018-Jun-02 14:31N 46°16' W 123°57'0 0.0
2018-Jun-02 14:00N 46°16' W 123°57'0 0.0
2018-Jun-02 13:24N 46°16' W 123°57'0 0.0
2018-Jun-02 13:00N 46°16' W 123°57'0 0.0
2018-Jun-02 12:30N 46°16' W 123°57'0 0.0
2018-Jun-02 12:01N 46°16' W 123°57'0 0.0
2018-Jun-02 11:30N 46°16' W 123°57'0 0.0
2018-Jun-02 11:00N 46°16' W 123°57'0 0.0
2018-Jun-02 10:30N 46°16' W 123°57'0 0.0
2018-Jun-02 10:01N 46°16' W 123°57'0 0.0
2018-Jun-02 09:30N 46°16' W 123°57'0 0.0
2018-Jun-02 09:01N 46°16' W 123°57'0 0.0
2018-Jun-02 08:30N 46°16' W 123°57'0 0.0
2018-Jun-02 08:00N 46°16' W 123°57'0 0.0
2018-Jun-02 07:16N 46°16' W 123°57'0 0.0
2018-Jun-02 06:59N 46°16' W 123°57'0 0.0
2018-Jun-02 06:30N 46°16' W 123°57'0 0.0
2018-Jun-02 06:01N 46°16' W 123°57'0 0.0
2018-Jun-02 05:31N 46°16' W 123°57'0 0.0
2018-Jun-02 05:00N 46°16' W 123°57'0 0.0
2018-Jun-02 04:31N 46°16' W 123°57'0 0.0
2018-Jun-02 03:56N 46°16' W 123°57'0 0.0
2018-Jun-02 03:31N 46°16' W 123°57'0 0.0
2018-Jun-02 03:00N 46°16' W 123°57'0 0.0
2018-Jun-02 02:30N 46°16' W 123°57'0 0.0
2018-Jun-02 02:00N 46°16' W 123°57'0 0.0
2018-Jun-02 01:30N 46°16' W 123°57'0 0.0
2018-Jun-02 01:00N 46°16' W 123°57'0 0.0
2018-Jun-02 00:30N 46°16' W 123°57'0 0.0
2018-Jun-02 00:00N 46°16' W 123°57'0 0.0
2018-Jun-01 23:30N 46°16' W 123°57'0 0.0
2018-Jun-01 23:00N 46°16' W 123°57'0 0.0
2018-Jun-01 22:31N 46°16' W 123°57'0 0.0
2018-Jun-01 22:00N 46°16' W 123°57'0 0.0
2018-Jun-01 21:28N 46°16' W 123°57'0 0.0
2018-Jun-01 21:00N 46°16' W 123°57'0 0.0
2018-Jun-01 20:30N 46°16' W 123°57'0 0.0
2018-Jun-01 20:00N 46°16' W 123°57'0 0.0
2018-Jun-01 19:30N 46°16' W 123°57'0 0.0
2018-Jun-01 19:01N 46°16' W 123°57'0 0.0
2018-Jun-01 18:30N 46°16' W 123°57'0 0.0
2018-Jun-01 18:00N 46°16' W 123°57'0 0.0
2018-Jun-01 17:30N 46°16' W 123°57'0 0.0
2018-Jun-01 17:00N 46°16' W 123°57'0 0.0
2018-Jun-01 16:27N 46°16' W 123°57'0 0.0
2018-Jun-01 16:00N 46°16' W 123°57'0 0.0
2018-Jun-01 15:30N 46°16' W 123°57'0 0.0
2018-Jun-01 15:00N 46°16' W 123°57'0 0.0
2018-Jun-01 14:30N 46°16' W 123°57'0 0.0
2018-Jun-01 13:45N 46°16' W 123°57'0 0.0
2018-Jun-01 13:30N 46°16' W 123°57'0 0.0
2018-Jun-01 13:00N 46°16' W 123°57'0 0.0
2018-Jun-01 12:30N 46°16' W 123°57'0 0.0
2018-Jun-01 12:00N 46°16' W 123°57'0 0.0
2018-Jun-01 11:30N 46°16' W 123°57'0 0.0
2018-Jun-01 11:00N 46°16' W 123°57'0 0.0
2018-Jun-01 10:30N 46°16' W 123°57'0 0.0
2018-Jun-01 10:01N 46°16' W 123°57'0 0.0
2018-Jun-01 09:30N 46°16' W 123°57'0 0.0
2018-Jun-01 09:01N 46°16' W 123°57'0 0.0
2018-Jun-01 08:30N 46°16' W 123°57'0 0.0
2018-Jun-01 08:00N 46°16' W 123°57'0 0.0
2018-Jun-01 07:30N 46°16' W 123°57'0 0.0
2018-Jun-01 06:59N 46°16' W 123°57'0 0.0
2018-Jun-01 06:30N 46°16' W 123°57'0 0.0
2018-Jun-01 05:45N 46°16' W 123°57'0 0.0
2018-Jun-01 05:30N 46°16' W 123°57'0 0.0
2018-Jun-01 04:47N 46°16' W 123°57'0 0.0
2018-Jun-01 04:30N 46°16' W 123°57'0 0.0
2018-Jun-01 04:01N 46°16' W 123°57'0 0.0
2018-Jun-01 03:27N 46°16' W 123°57'0 0.0
2018-Jun-01 03:01N 46°16' W 123°57'0 0.0
2018-Jun-01 02:31N 46°16' W 123°57'0 0.0
2018-Jun-01 02:01N 46°16' W 123°57'0 0.0
2018-Jun-01 01:21N 46°16' W 123°57'0 0.0
2018-Jun-01 01:00N 46°16' W 123°57'0 0.0
2018-Jun-01 00:30N 46°16' W 123°57'0 0.0
2018-Jun-01 00:00N 46°16' W 123°57'0 0.0
2018-May-31 23:30N 46°16' W 123°57'0 0.0
2018-May-31 23:01N 46°16' W 123°57'0 0.0
2018-May-31 22:30N 46°16' W 123°57'0 0.0
2018-May-31 22:00N 46°16' W 123°57'0 0.0
2018-May-31 21:31N 46°16' W 123°57'0 0.0
2018-May-31 21:00N 46°16' W 123°57'0 0.0
2018-May-31 20:30N 46°16' W 123°57'0 0.0
2018-May-31 20:00N 46°16' W 123°57'0 0.0
2018-May-31 19:30N 46°16' W 123°57'0 0.0
2018-May-31 19:00N 46°16' W 123°57'0 0.0
2018-May-31 18:25N 46°16' W 123°57'0 0.0
2018-May-31 17:45N 46°16' W 123°57'0 0.0
2018-May-31 17:30N 46°16' W 123°57'0 0.0
2018-May-31 17:00N 46°16' W 123°57'0 0.0
2018-May-31 16:30N 46°16' W 123°57'0 0.0
2018-May-31 16:00N 46°16' W 123°57'0 0.0
2018-May-31 15:30N 46°16' W 123°57'0 0.0
2018-May-31 14:48N 46°16' W 123°57'0 0.0
2018-May-31 14:30N 46°16' W 123°57'0 0.0
2018-May-31 14:00N 46°16' W 123°57'0 0.0
2018-May-31 13:30N 46°16' W 123°57'0 0.0
2018-May-31 13:00N 46°16' W 123°57'0 0.0
2018-May-31 12:30N 46°16' W 123°57'0 0.0
2018-May-31 04:42N 46°16' W 123°57'0 0.0
2018-May-31 04:30N 46°16' W 123°57'0 0.0
2018-May-31 04:00N 46°16' W 123°57'0 0.0
2018-May-31 03:30N 46°16' W 123°57'0 0.0
2018-May-31 03:00N 46°16' W 123°57'0 0.0
2018-May-31 02:30N 46°16' W 123°57'0 0.0
2018-May-31 02:00N 46°16' W 123°57'0 0.0
2018-May-31 01:31N 46°16' W 123°57'0 0.0
2018-May-31 01:00N 46°16' W 123°57'0 0.0
2018-May-31 00:31N 46°16' W 123°57'0 0.0
2018-May-31 00:00N 46°16' W 123°57'0 0.0
2018-May-30 23:31N 46°16' W 123°57'0 0.0
2018-May-30 23:00N 46°16' W 123°57'0 0.0
2018-May-30 22:16N 46°16' W 123°57'0 0.0
2018-May-30 22:01N 46°16' W 123°57'0 0.0
2018-May-30 21:31N 46°16' W 123°57'0 0.0
2018-May-30 21:01N 46°16' W 123°57'0 0.0
2018-May-30 20:30N 46°16' W 123°57'0 0.0
2018-May-30 20:00N 46°16' W 123°57'0 0.0
2018-May-30 19:30N 46°16' W 123°57'0 0.0
2018-May-30 19:01N 46°16' W 123°57'0 0.0
2018-May-30 18:30N 46°16' W 123°57'0 0.0
2018-May-30 18:00N 46°16' W 123°57'0 0.0
2018-May-30 17:30N 46°16' W 123°57'0 0.0
2018-May-30 17:01N 46°16' W 123°57'0 0.0
2018-May-30 16:31N 46°16' W 123°57'0 0.0
2018-May-30 16:00N 46°16' W 123°57'0 0.0
2018-May-30 15:17N 46°16' W 123°57'0 0.0
2018-May-30 15:01N 46°16' W 123°57'0 0.0
2018-May-30 14:31N 46°16' W 123°57'0 0.0
2018-May-30 14:01N 46°16' W 123°57'0 0.0
2018-May-30 13:30N 46°16' W 123°57'0 0.0
2018-May-30 13:00N 46°16' W 123°57'0 0.0
2018-May-30 12:30N 46°16' W 123°57'0 0.0
2018-May-30 11:58N 46°16' W 123°57'0 0.0
2018-May-30 11:31N 46°16' W 123°57'0 0.0
2018-May-30 11:00N 46°16' W 123°57'0 0.0
2018-May-30 10:15N 46°16' W 123°57'0 0.0
2018-May-30 10:01N 46°16' W 123°57'0 0.0
2018-May-30 09:31N 46°16' W 123°57'0 0.0
2018-May-30 09:00N 46°16' W 123°57'0 0.0
2018-May-30 08:30N 46°16' W 123°57'0 0.0
2018-May-30 08:01N 46°16' W 123°57'0 0.0
2018-May-30 07:30N 46°16' W 123°57'0 0.0
2018-May-30 06:59N 46°16' W 123°57'0 0.0
2018-May-30 06:30N 46°16' W 123°57'0 0.0
2018-May-30 06:00N 46°16' W 123°57'0 0.0
2018-May-30 05:16N 46°16' W 123°57'0 0.0
2018-May-30 05:01N 46°16' W 123°57'0 0.0
2018-May-30 04:30N 46°16' W 123°57'0 0.0
2018-May-30 04:00N 46°16' W 123°57'0 0.0
2018-May-30 03:31N 46°16' W 123°57'0 0.0
2018-May-30 02:47N 46°16' W 123°57'0 0.0
2018-May-30 02:30N 46°16' W 123°57'0 0.0
2018-May-30 01:53N 46°16' W 123°57'0 0.0
2018-May-30 01:30N 46°16' W 123°57'0 0.0
2018-May-30 01:00N 46°16' W 123°57'0 0.0
2018-May-30 00:30N 46°16' W 123°57'0 0.0
2018-May-29 23:53N 46°16' W 123°57'0 0.0
2018-May-29 23:31N 46°16' W 123°57'0 0.0
2018-May-29 23:00N 46°16' W 123°57'0 0.0
2018-May-29 22:30N 46°16' W 123°57'0 0.0
2018-May-29 22:00N 46°16' W 123°57'0 0.0
2018-May-29 21:25N 46°16' W 123°57'0 0.0
2018-May-29 21:00N 46°16' W 123°57'0 0.0
2018-May-29 20:30N 46°16' W 123°57'0 0.0
2018-May-29 20:00N 46°16' W 123°57'0 0.0
2018-May-29 19:30N 46°16' W 123°57'0 0.0
2018-May-29 19:00N 46°16' W 123°57'0 0.0
2018-May-29 18:30N 46°16' W 123°57'0 0.0
2018-May-29 18:00N 46°16' W 123°57'0 0.0
2018-May-29 17:30N 46°16' W 123°57'0 0.0
2018-May-29 17:00N 46°16' W 123°57'0 0.0
2018-May-29 16:30N 46°16' W 123°57'0 0.0
2018-May-29 16:00N 46°16' W 123°57'0 0.0
2018-May-29 15:30N 46°16' W 123°57'0 0.0
2018-May-29 15:00N 46°16' W 123°57'0 0.0
2018-May-29 14:30N 46°16' W 123°57'0 0.0
2018-May-29 14:00N 46°16' W 123°57'0 0.0
2018-May-29 13:30N 46°16' W 123°57'0 0.0
2018-May-29 13:00N 46°16' W 123°57'0 0.0
2018-May-29 12:23N 46°16' W 123°57'  

Dump ship's entire track history